createdAt,value
2022-11-21T00:00:37.158Z,2.52
2022-11-21T00:03:06.624Z,2.60
2022-11-21T00:05:37.628Z,2.60
2022-11-21T00:08:07.938Z,2.67
2022-11-21T00:10:38.153Z,2.52
2022-11-21T00:13:08.513Z,2.67
2022-11-21T00:15:37.798Z,3.02
2022-11-21T00:18:07.186Z,2.90
2022-11-21T00:20:37.221Z,2.90
2022-11-21T00:23:06.783Z,2.65
2022-11-21T00:25:36.787Z,4.17
2022-11-21T00:28:06.839Z,4.10
2022-11-21T00:30:37.023Z,5.47
2022-11-21T00:33:06.445Z,6.37
2022-11-21T00:35:35.839Z,6.80
2022-11-21T00:38:05.304Z,7.85
2022-11-21T00:40:34.539Z,8.48
2022-11-21T00:43:03.887Z,8.80
2022-11-21T00:45:33.361Z,10.35
2022-11-21T00:48:02.957Z,11.45
2022-11-21T00:50:32.373Z,12.90
2022-11-21T00:53:01.594Z,12.50
2022-11-21T00:55:30.837Z,12.53
2022-11-21T00:58:00.052Z,13.95
2022-11-21T01:00:29.563Z,14.50
2022-11-21T01:02:58.785Z,14.20
2022-11-21T01:05:28.021Z,15.80
2022-11-21T01:07:57.337Z,14.30
2022-11-21T01:10:26.573Z,14.58
2022-11-21T01:12:55.792Z,13.65
2022-11-21T01:15:25.280Z,13.62
2022-11-21T01:17:54.478Z,14.58
2022-11-21T01:20:23.853Z,15.03
2022-11-21T01:22:53.081Z,14.93
2022-11-21T01:25:22.438Z,15.53
2022-11-21T01:27:51.650Z,15.50
2022-11-21T01:30:21.078Z,14.93
2022-11-21T01:32:50.453Z,15.28
2022-11-21T01:35:20.348Z,16.02
2022-11-21T01:37:50.394Z,17.05
2022-11-21T01:40:19.815Z,21.05
2022-11-21T01:43:04.253Z,22.35
2022-11-21T01:45:56.085Z,29.10
2022-11-21T01:48:28.453Z,30.55
2022-11-21T01:50:59.652Z,29.18
2022-11-21T01:53:28.965Z,29.10
2022-11-21T01:55:58.264Z,30.17
2022-11-21T01:58:27.662Z,29.45
2022-11-21T02:00:57.245Z,29.87
2022-11-21T02:03:28.813Z,31.17
2022-11-21T02:05:58.716Z,33.30
2022-11-21T02:08:28.719Z,34.75
2022-11-21T02:11:25.590Z,34.80
2022-11-21T02:13:55.268Z,33.88
2022-11-21T02:16:25.566Z,34.70
2022-11-21T02:18:55.474Z,34.83
2022-11-21T02:21:43.212Z,35.28
2022-11-21T02:24:30.606Z,35.38
2022-11-21T02:27:01.088Z,35.58
2022-11-21T02:29:30.467Z,36.42
2022-11-21T02:32:05.432Z,37.08
2022-11-21T02:34:35.099Z,38.33
2022-11-21T02:37:04.326Z,36.75
2022-11-21T02:39:36.632Z,39.03
2022-11-21T02:42:18.511Z,38.23
2022-11-21T02:44:54.289Z,36.87
2022-11-21T02:47:24.188Z,35.73
2022-11-21T02:50:15.293Z,35.08
2022-11-21T02:52:44.779Z,38.75
2022-11-21T02:55:15.690Z,39.13
2022-11-21T02:57:45.264Z,37.73
2022-11-21T03:00:15.035Z,35.40
2022-11-21T03:02:44.553Z,36.88
2022-11-21T03:05:16.704Z,38.08
2022-11-21T03:07:46.489Z,37.88
2022-11-21T03:10:16.476Z,38.48
2022-11-21T03:12:45.750Z,35.45
2022-11-21T03:15:16.787Z,38.88
2022-11-21T03:17:49.615Z,39.30
2022-11-21T03:20:19.049Z,42.55
2022-11-21T03:22:48.258Z,38.95
2022-11-21T03:25:18.126Z,34.92
2022-11-21T03:27:47.409Z,32.95
2022-11-21T03:30:17.315Z,34.98
2022-11-21T03:32:46.525Z,35.10
2022-11-21T03:35:16.529Z,36.93
2022-11-21T03:37:45.819Z,35.90
2022-11-21T03:40:15.481Z,33.98
2022-11-21T03:42:45.024Z,34.13
2022-11-21T03:45:14.559Z,34.05
2022-11-21T03:47:43.953Z,34.15
2022-11-21T03:50:15.296Z,34.33
2022-11-21T03:52:44.571Z,34.00
2022-11-21T03:55:15.240Z,34.98
2022-11-21T03:57:44.672Z,33.42
2022-11-21T04:00:15.014Z,35.78
2022-11-21T04:02:44.358Z,36.53
2022-11-21T04:05:13.887Z,38.20
2022-11-21T04:07:43.203Z,39.73
2022-11-21T04:10:12.748Z,39.15
2022-11-21T04:12:41.988Z,44.63
2022-11-21T04:15:13.882Z,46.02
2022-11-21T04:17:42.578Z,42.33
2022-11-21T04:20:12.514Z,41.80
2022-11-21T04:22:41.716Z,40.73
2022-11-21T04:25:13.876Z,45.43
2022-11-21T04:27:43.075Z,43.68
2022-11-21T04:30:13.129Z,43.85
2022-11-21T04:32:42.352Z,40.23
2022-11-21T04:35:11.732Z,44.27
2022-11-21T04:37:41.104Z,41.15
2022-11-21T04:40:11.394Z,49.58
2022-11-21T04:42:44.659Z,44.13
2022-11-21T04:45:14.962Z,37.88
2022-11-21T04:47:46.008Z,41.77
2022-11-21T04:50:17.858Z,43.42
2022-11-21T04:52:54.624Z,42.38
2022-11-21T04:55:27.097Z,41.02
2022-11-21T05:00:24.830Z,41.90
2022-11-21T05:02:54.280Z,39.10
2022-11-21T05:05:23.939Z,43.48
2022-11-21T05:07:53.268Z,39.33
2022-11-21T05:10:22.734Z,45.85
2022-11-21T05:13:17.388Z,42.75
2022-11-21T05:15:48.998Z,43.83
2022-11-21T05:18:20.014Z,40.13
2022-11-21T05:20:49.311Z,37.55
2022-11-21T05:23:18.681Z,40.28
2022-11-21T05:25:47.954Z,36.58
2022-11-21T05:28:17.156Z,37.38
2022-11-21T05:30:46.435Z,35.88
2022-11-21T05:33:15.625Z,36.98
2022-11-21T05:35:44.994Z,37.45
2022-11-21T05:38:14.338Z,36.88
2022-11-21T05:40:43.616Z,37.42
2022-11-21T05:43:31.278Z,35.30
2022-11-21T05:46:00.658Z,37.40
2022-11-21T05:48:29.865Z,35.38
2022-11-21T05:50:59.359Z,36.10
2022-11-21T05:53:28.568Z,36.33
2022-11-21T05:55:57.988Z,35.65
2022-11-21T05:58:27.186Z,37.10
2022-11-21T06:01:00.595Z,35.33
2022-11-21T06:03:33.144Z,36.73
2022-11-21T06:08:33.953Z,34.90
2022-11-21T06:11:03.891Z,34.97
2022-11-21T06:13:33.984Z,34.70
2022-11-21T06:16:08.558Z,35.73
2022-11-21T06:18:39.554Z,36.20
2022-11-21T06:21:12.054Z,35.25
2022-11-21T06:26:15.315Z,34.58
2022-11-21T06:28:46.161Z,36.10
2022-11-21T06:31:17.352Z,35.00
2022-11-21T06:33:47.429Z,35.05
2022-11-21T06:36:18.741Z,36.95
2022-11-21T06:38:48.594Z,33.98
2022-11-21T06:41:19.957Z,34.50
2022-11-21T06:43:49.474Z,34.73
2022-11-21T06:46:19.502Z,32.95
2022-11-21T06:48:48.788Z,33.50
2022-11-21T06:51:19.842Z,34.27
2022-11-21T06:53:53.436Z,33.50
2022-11-21T06:56:23.317Z,33.35
2022-11-21T06:58:52.807Z,35.90
2022-11-21T07:01:22.097Z,35.23
2022-11-21T07:03:51.826Z,35.05
2022-11-21T07:06:21.086Z,35.60
2022-11-21T07:09:31.174Z,36.60
2022-11-21T07:11:28.675Z,35.35
2022-11-21T07:13:57.906Z,36.35
2022-11-21T07:16:29.709Z,36.93
2022-11-21T07:19:00.363Z,36.70
2022-11-21T07:21:29.778Z,36.70
2022-11-21T07:23:59.091Z,35.30
2022-11-21T07:26:28.482Z,36.10
2022-11-21T07:28:58.986Z,35.08
2022-11-21T07:31:28.619Z,35.43
2022-11-21T07:33:57.857Z,33.90
2022-11-21T07:36:27.311Z,33.48
2022-11-21T07:38:56.557Z,33.45
2022-11-21T07:41:26.077Z,32.73
2022-11-21T07:43:55.292Z,30.95
2022-11-21T07:46:24.835Z,31.37
2022-11-21T07:48:54.077Z,31.17
2022-11-21T07:51:23.436Z,30.25
2022-11-21T07:53:52.687Z,28.90
2022-11-21T07:56:22.036Z,27.00
2022-11-21T07:58:53.511Z,28.20
2022-11-21T08:01:22.900Z,27.82
2022-11-21T08:03:52.355Z,29.05
2022-11-21T08:06:21.661Z,27.62
2022-11-21T08:08:55.176Z,29.27
2022-11-21T08:11:25.757Z,27.95
2022-11-21T08:13:55.046Z,28.57
2022-11-21T08:16:25.932Z,26.90
2022-11-21T08:18:56.005Z,26.37
2022-11-21T08:21:25.208Z,26.02
2022-11-21T08:23:55.576Z,26.23
2022-11-21T08:26:24.789Z,27.17
2022-11-21T08:28:59.653Z,25.35
2022-11-21T08:31:25.035Z,25.25
2022-11-21T08:33:58.586Z,26.02
2022-11-21T08:36:27.804Z,25.82
2022-11-21T08:38:57.381Z,25.55
2022-11-21T08:41:34.294Z,25.68
2022-11-21T08:44:03.622Z,25.08
2022-11-21T08:46:35.289Z,25.32
2022-11-21T08:49:08.427Z,24.90
2022-11-21T08:51:37.907Z,24.43
2022-11-21T08:54:08.115Z,24.67
2022-11-21T08:56:37.395Z,24.52
2022-11-21T08:59:06.655Z,24.32
2022-11-21T09:01:36.066Z,24.50
2022-11-21T09:04:06.543Z,22.90
2022-11-21T09:06:35.843Z,23.07
2022-11-21T09:09:07.097Z,23.85
2022-11-21T09:11:37.821Z,22.02
2022-11-21T09:14:25.892Z,21.87
2022-11-21T09:17:13.521Z,21.68
2022-11-21T09:19:42.914Z,21.25
2022-11-21T09:22:12.328Z,20.37
2022-11-21T09:24:41.624Z,19.73
2022-11-21T09:27:10.952Z,18.45
2022-11-21T09:29:40.150Z,16.73
2022-11-21T09:32:09.502Z,15.53
2022-11-21T09:34:38.714Z,12.18
2022-11-21T09:37:08.043Z,10.90
2022-11-21T09:39:37.346Z,9.53
2022-11-21T09:42:10.026Z,8.08
2022-11-21T09:47:41.879Z,7.85
2022-11-21T09:50:17.144Z,6.78
2022-11-21T09:53:04.624Z,6.12
2022-11-21T09:55:40.060Z,6.83
2022-11-21T09:58:12.549Z,6.17
2022-11-21T10:00:41.925Z,6.35
2022-11-21T10:03:14.743Z,6.33
2022-11-21T10:08:31.926Z,5.50
2022-11-21T10:11:24.034Z,4.70
2022-11-21T10:13:59.470Z,5.10
2022-11-21T10:16:52.700Z,4.78
2022-11-21T10:19:58.802Z,5.10
2022-11-21T10:22:31.207Z,5.80
2022-11-21T10:25:15.302Z,5.50
2022-11-21T10:27:50.734Z,5.20
2022-11-21T10:30:21.972Z,5.03
2022-11-21T10:32:57.143Z,4.90
2022-11-21T10:35:38.361Z,5.28
2022-11-21T10:38:19.763Z,5.45
2022-11-21T10:40:58.130Z,4.83
2022-11-21T10:43:57.823Z,5.17
2022-11-21T10:46:27.103Z,4.80
2022-11-21T10:49:04.373Z,4.58
2022-11-21T10:51:55.034Z,4.28
2022-11-21T10:54:33.467Z,4.20
2022-11-21T10:57:08.489Z,3.67
2022-11-21T10:59:37.799Z,3.60
2022-11-21T11:02:22.959Z,3.42
2022-11-21T11:05:11.876Z,3.50
2022-11-21T11:07:41.535Z,3.60
2022-11-21T11:10:27.510Z,4.00
2022-11-21T11:13:38.807Z,3.25
2022-11-21T11:16:00.682Z,2.90
2022-11-21T11:18:30.154Z,3.47
2022-11-21T11:21:17.145Z,3.27
2022-11-21T11:23:47.578Z,3.40
2022-11-21T11:26:31.200Z,3.20
2022-11-21T11:29:12.731Z,2.95
2022-11-21T11:31:43.976Z,2.90
2022-11-21T11:34:15.231Z,2.72
2022-11-21T11:37:06.697Z,2.75
2022-11-21T11:40:00.359Z,2.92
2022-11-21T11:42:50.614Z,2.77
2022-11-21T11:46:06.633Z,2.70
2022-11-21T11:48:56.642Z,3.25
2022-11-21T11:51:13.921Z,3.10
2022-11-21T11:53:46.955Z,3.33
2022-11-21T11:56:25.548Z,2.85
2022-11-21T11:59:18.075Z,3.12
2022-11-21T12:02:10.367Z,2.98
2022-11-21T12:04:42.238Z,3.05
2022-11-21T12:08:12.601Z,3.27
2022-11-21T12:10:27.827Z,2.42
2022-11-21T12:13:09.762Z,3.02
2022-11-21T12:15:52.910Z,3.13
2022-11-21T12:18:28.176Z,3.50
2022-11-21T12:21:18.554Z,3.02
2022-11-21T12:23:57.019Z,3.37
2022-11-21T12:27:04.483Z,3.33
2022-11-21T12:29:39.951Z,3.35
2022-11-21T12:32:12.333Z,2.77
2022-11-21T12:35:11.599Z,2.87
2022-11-21T12:37:49.862Z,2.75
2022-11-21T12:40:34.497Z,3.30
2022-11-21T12:43:26.416Z,3.45
2022-11-21T12:45:58.636Z,3.52
2022-11-21T12:49:08.132Z,3.00
2022-11-21T12:52:01.382Z,3.17
2022-11-21T12:54:38.576Z,3.37
2022-11-21T12:57:16.396Z,3.60
2022-11-21T13:00:10.011Z,3.60
2022-11-21T13:03:07.029Z,4.47
2022-11-21T13:05:38.451Z,3.40
2022-11-21T13:08:11.264Z,3.72
2022-11-21T13:10:43.417Z,3.52
2022-11-21T13:13:24.793Z,3.58
2022-11-21T13:16:11.960Z,3.37
2022-11-21T13:18:48.236Z,3.40
2022-11-21T13:21:43.821Z,3.60
2022-11-21T13:24:13.108Z,3.17
2022-11-21T13:26:48.175Z,3.25
2022-11-21T13:29:17.497Z,3.33
2022-11-21T13:31:48.114Z,3.45
2022-11-21T13:34:37.640Z,3.17
2022-11-21T13:37:07.139Z,2.98
2022-11-21T13:39:37.278Z,3.05
2022-11-21T13:42:26.404Z,2.83
2022-11-21T13:44:56.144Z,3.62
2022-11-21T13:47:34.219Z,3.50
2022-11-21T13:50:31.298Z,3.85
2022-11-21T13:53:06.113Z,3.52
2022-11-21T13:55:51.207Z,4.25
2022-11-21T13:58:35.845Z,4.00
2022-11-21T14:01:17.507Z,4.17
2022-11-21T14:04:20.984Z,4.50
2022-11-21T14:06:50.312Z,4.70
2022-11-21T14:09:39.831Z,5.05
2022-11-21T14:12:13.676Z,4.97
2022-11-21T14:14:51.618Z,5.08
2022-11-21T14:17:36.130Z,5.05
2022-11-21T14:20:20.398Z,5.33
2022-11-21T14:22:54.992Z,5.12
2022-11-21T14:25:40.288Z,5.45
2022-11-21T14:28:13.136Z,5.62
2022-11-21T14:33:32.140Z,6.00
2022-11-21T14:36:25.536Z,5.70
2022-11-21T14:44:04.152Z,4.90
2022-11-21T14:46:38.385Z,5.00
2022-11-21T14:49:24.798Z,5.22
2022-11-21T14:52:09.002Z,4.40
2022-11-21T14:55:14.988Z,4.97
2022-11-21T14:57:27.292Z,4.90
2022-11-21T14:59:58.127Z,4.72
2022-11-21T15:02:32.462Z,4.87
2022-11-21T15:05:04.516Z,5.28
2022-11-21T15:07:42.272Z,5.47
2022-11-21T15:10:32.587Z,5.37
2022-11-21T15:12:53.331Z,5.42
2022-11-21T15:15:40.174Z,5.22
2022-11-21T15:18:30.412Z,5.70
2022-11-21T15:20:56.815Z,5.87
2022-11-21T15:23:38.807Z,5.92
2022-11-21T15:26:10.319Z,6.15
2022-11-21T15:28:39.543Z,6.00
2022-11-21T15:31:23.501Z,6.00
2022-11-21T15:34:34.871Z,5.78
2022-11-21T15:36:35.486Z,5.95
2022-11-21T15:39:13.627Z,5.65
2022-11-21T15:41:42.958Z,5.53
2022-11-21T15:44:15.348Z,5.30
2022-11-21T15:46:47.191Z,5.80
2022-11-21T15:49:33.806Z,5.55
2022-11-21T15:52:06.650Z,6.03
2022-11-21T15:54:23.250Z,5.40
2022-11-21T15:56:52.688Z,5.75
2022-11-21T15:59:21.909Z,5.62
2022-11-21T16:01:51.444Z,6.87
2022-11-21T16:04:25.287Z,6.30
2022-11-21T16:06:51.823Z,6.53
2022-11-21T16:09:21.135Z,7.65
2022-11-21T16:11:50.519Z,7.83
2022-11-21T16:14:19.747Z,9.83
2022-11-21T16:16:49.276Z,8.18
2022-11-21T16:19:18.484Z,8.90
2022-11-21T16:21:47.758Z,11.63
2022-11-21T16:24:17.257Z,11.70
2022-11-21T16:26:47.181Z,11.28
2022-11-21T16:29:16.594Z,8.38
2022-11-21T16:31:46.052Z,8.40
2022-11-21T16:34:18.622Z,10.00
2022-11-21T16:39:18.451Z,9.65
2022-11-21T16:41:49.160Z,8.85
2022-11-21T16:44:18.468Z,9.63
2022-11-21T16:46:49.258Z,12.78
2022-11-21T16:49:20.170Z,10.90
2022-11-21T16:51:49.376Z,11.25
2022-11-21T16:54:18.758Z,10.18
2022-11-21T16:56:47.972Z,8.75
2022-11-21T16:59:17.453Z,7.72
2022-11-21T17:01:47.395Z,7.28
2022-11-21T17:04:17.719Z,9.88
2022-11-21T17:06:48.859Z,7.00
2022-11-21T17:09:18.313Z,8.63
2022-11-21T17:11:47.640Z,9.80
2022-11-21T17:14:17.082Z,10.78
2022-11-21T17:16:46.464Z,25.05
2022-11-21T17:19:16.488Z,9.58
2022-11-21T17:21:45.795Z,7.97
2022-11-21T17:24:15.414Z,6.40
2022-11-21T17:26:44.612Z,6.08
2022-11-21T17:29:13.962Z,5.78
2022-11-21T17:31:43.148Z,5.42
2022-11-21T17:34:13.385Z,5.72
2022-11-21T17:36:42.571Z,6.70
2022-11-21T17:39:12.767Z,6.33
2022-11-21T17:41:41.968Z,5.90
2022-11-21T17:44:14.622Z,5.65
2022-11-21T17:49:12.609Z,5.80
2022-11-21T17:51:41.893Z,5.78
2022-11-21T17:54:12.630Z,5.25
2022-11-21T17:56:46.449Z,5.30
2022-11-21T17:59:13.620Z,5.42
2022-11-21T18:01:43.057Z,5.70
2022-11-21T18:04:15.397Z,6.05
2022-11-21T18:06:44.852Z,6.25
2022-11-21T18:09:14.767Z,5.97
2022-11-21T18:11:44.274Z,5.85
2022-11-21T18:14:14.415Z,5.33
2022-11-21T18:16:49.533Z,5.80
2022-11-21T18:19:15.530Z,6.50
2022-11-21T18:21:46.056Z,6.10
2022-11-21T18:24:15.381Z,6.78
2022-11-21T18:26:45.079Z,6.85
2022-11-21T18:31:45.668Z,6.47
2022-11-21T18:34:14.926Z,6.97
2022-11-21T18:36:44.681Z,7.25
2022-11-21T18:39:15.486Z,7.33
2022-11-21T18:41:45.238Z,6.97
2022-11-21T18:44:21.284Z,7.17
2022-11-21T18:46:47.063Z,8.23
2022-11-21T18:49:16.350Z,8.45
2022-11-21T18:51:45.813Z,8.45
2022-11-21T18:54:15.105Z,8.55
2022-11-21T18:56:44.685Z,9.15
2022-11-21T18:59:13.987Z,7.75
2022-11-21T19:01:43.797Z,8.65
2022-11-21T19:04:13.175Z,8.65
2022-11-21T19:06:42.555Z,8.13
2022-11-21T19:09:12.086Z,8.45
2022-11-21T19:11:41.686Z,8.00
2022-11-21T19:14:11.049Z,8.33
2022-11-21T19:16:40.916Z,7.78
2022-11-21T19:21:42.548Z,8.40
2022-11-21T19:24:19.687Z,8.13
2022-11-21T19:26:50.597Z,7.75
2022-11-21T19:29:20.133Z,8.15
2022-11-21T19:31:49.325Z,8.25
2022-11-21T19:34:18.751Z,9.28
2022-11-21T19:36:48.059Z,8.40
2022-11-21T19:39:18.027Z,8.30
2022-11-21T19:41:49.615Z,8.53
2022-11-21T19:44:18.962Z,10.60
2022-11-21T19:46:49.464Z,12.10
2022-11-21T19:49:20.128Z,8.25
2022-11-21T19:51:49.481Z,10.68
2022-11-21T19:54:18.795Z,9.15
2022-11-21T19:56:48.235Z,8.38
2022-11-21T19:59:17.607Z,7.40
2022-11-21T20:01:52.139Z,7.62
2022-11-21T20:04:18.005Z,7.72
2022-11-21T20:06:47.834Z,8.08
2022-11-21T20:09:19.297Z,8.30
2022-11-21T20:11:51.518Z,7.72
2022-11-21T20:14:22.763Z,8.28
2022-11-21T20:16:53.991Z,7.95
2022-11-21T20:19:24.983Z,7.97
2022-11-21T20:21:54.794Z,8.10
2022-11-21T20:24:24.021Z,8.18
2022-11-21T20:26:53.843Z,8.05
2022-11-21T20:29:23.086Z,8.90
2022-11-21T20:31:52.357Z,8.45
2022-11-21T20:34:21.766Z,8.55
2022-11-21T20:36:51.321Z,8.98
2022-11-21T20:39:21.687Z,8.30
2022-11-21T20:41:50.958Z,8.35
2022-11-21T20:46:52.614Z,8.20
2022-11-21T20:49:22.523Z,9.00
2022-11-21T20:54:23.078Z,9.35
2022-11-21T20:56:52.407Z,9.40
2022-11-21T20:59:21.765Z,8.80
2022-11-21T21:01:51.163Z,9.73
2022-11-21T21:04:20.792Z,8.43
2022-11-21T21:06:50.081Z,8.73
2022-11-21T21:09:19.475Z,8.55
2022-11-21T21:11:53.214Z,13.80
2022-11-21T21:14:19.977Z,8.90
2022-11-21T21:16:49.421Z,12.07
2022-11-21T21:19:19.462Z,10.48
2022-11-21T21:21:48.802Z,10.58
2022-11-21T21:24:18.729Z,9.40
2022-11-21T21:26:49.026Z,11.85
2022-11-21T21:29:19.995Z,10.30
2022-11-21T21:31:52.236Z,12.60
2022-11-21T21:34:21.973Z,11.43
2022-11-21T21:36:52.015Z,10.50
2022-11-21T21:39:21.508Z,10.90
2022-11-21T21:41:50.763Z,10.35
2022-11-21T21:44:20.186Z,11.15
2022-11-21T21:46:49.540Z,11.57
2022-11-21T21:49:18.938Z,12.03
2022-11-21T21:51:48.182Z,12.05
2022-11-21T21:54:19.633Z,11.30
2022-11-21T21:56:49.053Z,12.05
2022-11-21T21:59:19.725Z,11.68
2022-11-21T22:01:49.251Z,11.68
2022-11-21T22:04:18.833Z,11.33
2022-11-21T22:06:48.128Z,11.43
2022-11-21T22:09:17.476Z,11.55
2022-11-21T22:11:46.782Z,10.75
2022-11-21T22:14:16.883Z,11.43
2022-11-21T22:16:46.516Z,11.80
2022-11-21T22:19:16.137Z,12.55
2022-11-21T22:21:46.442Z,12.45
2022-11-21T22:24:36.788Z,11.20
2022-11-21T22:27:06.370Z,11.48
2022-11-21T22:29:35.636Z,27.73
2022-11-21T22:32:06.656Z,11.50
2022-11-21T22:34:36.371Z,11.35
2022-11-21T22:37:05.702Z,11.10
2022-11-21T22:39:35.455Z,12.20
2022-11-21T22:42:04.862Z,10.90
2022-11-21T22:44:34.257Z,11.00
2022-11-21T22:47:03.620Z,11.95
2022-11-21T22:49:32.848Z,12.30
2022-11-21T22:52:02.384Z,12.18
2022-11-21T22:54:31.956Z,12.33
2022-11-21T22:57:01.382Z,11.97
2022-11-21T22:59:30.804Z,12.50
2022-11-21T23:02:00.244Z,13.00
2022-11-21T23:04:29.647Z,12.28
2022-11-21T23:06:58.944Z,12.65
2022-11-21T23:09:28.439Z,13.45
2022-11-21T23:11:58.076Z,12.55
2022-11-21T23:14:27.763Z,12.60
2022-11-21T23:16:57.429Z,13.43
2022-11-21T23:19:27.068Z,13.78
2022-11-21T23:21:56.416Z,13.43
2022-11-21T23:24:25.831Z,14.03
2022-11-21T23:26:55.052Z,14.55
2022-11-21T23:29:24.299Z,14.18
2022-11-21T23:31:53.514Z,14.78
2022-11-21T23:34:22.937Z,13.98
2022-11-21T23:36:52.147Z,14.47
2022-11-21T23:39:21.533Z,14.68
2022-11-21T23:41:50.741Z,13.68
2022-11-21T23:44:20.144Z,13.85
2022-11-21T23:46:49.348Z,13.58
2022-11-21T23:49:18.730Z,14.25
2022-11-21T23:51:47.968Z,14.68
2022-11-21T23:54:17.192Z,14.03
2022-11-21T23:56:46.394Z,13.75
2022-11-21T23:59:15.642Z,13.20
